Time;durP1;ratioP1;P1;durP2;ratioP2;P2;SDS_P1;SDS_P2;PMS_P1;PMS_P2;Temp;Humidity;BMP_temperature;BMP_pressure;BME280_temperature;BME280_humidity;BME280_pressure;Samples;Min_cycle;Max_cycle;Signal;HPM_P1;HPM_P2
2021/11/12 00:13:12;;;;;;;41.47;21.00;;;;;;;;;;4880883;29;20059;-76
2021/11/12 00:16:18;;;;;;;36.90;19.85;;;;;;;;;;4880346;29;20052;-76
2021/11/12 00:19:22;;;;;;;39.50;20.75;;;;;;;;;;4880135;29;20048;-76
2021/11/12 00:22:27;;;;;;;31.55;19.17;;;;;;;;;;4880284;29;20061;-75
2021/11/12 00:25:32;;;;;;;37.75;20.13;;;;;;;;;;4880405;29;20052;-75
2021/11/12 00:28:40;;;;;;;34.75;20.23;;;;;;;;;;4880289;29;20500;-74
2021/11/12 00:38:22;;;;;;;36.00;20.45;;;;;;;;;;4880383;29;20409;-76
2021/11/12 00:41:40;;;;;;;36.97;20.30;;;;;;;;;;4880252;29;20040;-75
2021/11/12 00:51:21;;;;;;;30.58;18.60;;;;;;;;;;4880143;29;20522;-76
2021/11/12 00:54:26;;;;;;;31.20;18.92;;;;;;;;;;4879915;29;20501;-76
2021/11/12 00:57:32;;;;;;;35.00;19.63;;;;;;;;;;4879090;29;20060;-76
2021/11/12 01:00:37;;;;;;;36.58;20.13;;;;;;;;;;4880390;29;20197;-76
2021/11/12 01:03:41;;;;;;;33.30;19.95;;;;;;;;;;4879798;29;20320;-77
2021/11/12 01:06:46;;;;;;;42.83;21.05;;;;;;;;;;4879198;29;20421;-77
2021/11/12 01:09:50;;;;;;;33.97;20.05;;;;;;;;;;4879844;29;20422;-74
2021/11/12 01:12:56;;;;;;;33.20;20.88;;;;;;;;;;4879067;29;20092;-74
2021/11/12 01:16:01;;;;;;;32.17;20.23;;;;;;;;;;4880000;29;20055;-76
2021/11/12 01:19:08;;;;;;;35.47;20.55;;;;;;;;;;4880138;29;20052;-77
2021/11/12 01:22:12;;;;;;;37.35;21.50;;;;;;;;;;4879407;29;20056;-75
2021/11/12 01:25:17;;;;;;;39.10;21.98;;;;;;;;;;4879606;29;20413;-75
2021/11/12 01:28:22;;;;;;;40.53;21.10;;;;;;;;;;4879283;29;20052;-75
2021/11/12 01:31:27;;;;;;;33.75;21.13;;;;;;;;;;4879321;29;20056;-76
2021/11/12 01:34:31;;;;;;;37.38;22.23;;;;;;;;;;4879308;29;20052;-75
2021/11/12 01:37:37;;;;;;;41.83;21.80;;;;;;;;;;4879726;29;20402;-75
2021/11/12 01:40:41;;;;;;;41.53;22.15;;;;;;;;;;4867724;29;20044;-75
2021/11/12 01:43:48;;;;;;;41.50;23.23;;;;;;;;;;4889025;29;20044;-75
2021/11/12 01:50:20;;;;;;;39.53;23.25;;;;;;;;;;4879424;29;20285;-75
2021/11/12 01:53:32;;;;;;;36.58;24.10;;;;;;;;;;4879452;29;20541;-74
2021/11/12 01:59:48;;;;;;;36.03;22.30;;;;;;;;;;4879383;29;20071;-75
2021/11/12 02:02:59;;;;;;;38.95;21.90;;;;;;;;;;4878966;29;20394;-75
2021/11/12 02:06:03;;;;;;;37.50;21.33;;;;;;;;;;4878771;29;20076;-75
2021/11/12 02:09:26;;;;;;;39.53;22.02;;;;;;;;;;4879057;29;20500;-75
2021/11/12 02:12:34;;;;;;;39.53;21.38;;;;;;;;;;4878910;29;20056;-75
2021/11/12 02:15:40;;;;;;;33.65;21.00;;;;;;;;;;4878799;29;20405;-75
2021/11/12 02:18:46;;;;;;;35.67;21.52;;;;;;;;;;4878919;29;20410;-75
2021/11/12 02:22:09;;;;;;;36.22;22.17;;;;;;;;;;4878050;29;20426;-76
2021/11/12 02:25:15;;;;;;;40.08;21.25;;;;;;;;;;4877412;29;20073;-75
2021/11/12 02:28:20;;;;;;;37.10;22.63;;;;;;;;;;4878326;29;20056;-75
2021/11/12 02:31:25;;;;;;;34.33;21.98;;;;;;;;;;4878167;29;20219;-77
2021/11/12 02:34:30;;;;;;;40.00;21.95;;;;;;;;;;4878604;29;20056;-77
2021/11/12 02:37:34;;;;;;;41.75;22.10;;;;;;;;;;4878532;29;20060;-74
2021/11/12 02:40:39;;;;;;;34.30;21.13;;;;;;;;;;4888625;29;20119;-76
2021/11/12 02:43:45;;;;;;;36.42;22.40;;;;;;;;;;4881681;29;20052;-76
2021/11/12 02:46:50;;;;;;;34.72;21.77;;;;;;;;;;4882167;29;20048;-76
2021/11/12 02:49:57;;;;;;;40.00;23.30;;;;;;;;;;4882048;29;20401;-76
2021/11/12 02:53:05;;;;;;;36.40;21.83;;;;;;;;;;4881840;29;20052;-76
2021/11/12 02:56:14;;;;;;;35.50;22.10;;;;;;;;;;4882200;29;20056;-74
2021/11/12 02:59:18;;;;;;;40.45;22.92;;;;;;;;;;4881151;29;20060;-76
2021/11/12 03:02:23;;;;;;;39.78;23.42;;;;;;;;;;4881730;29;20072;-76
2021/11/12 03:05:28;;;;;;;40.47;23.75;;;;;;;;;;4891828;29;20055;-76
2021/11/12 03:08:33;;;;;;;35.15;22.88;;;;;;;;;;4881862;29;20052;-75
2021/11/12 03:11:38;;;;;;;36.55;23.35;;;;;;;;;;4881297;29;20508;-75
2021/11/12 03:14:42;;;;;;;37.80;23.42;;;;;;;;;;4881703;29;20056;-75
2021/11/12 03:17:48;;;;;;;40.72;22.60;;;;;;;;;;4880715;29;20127;-75
2021/11/12 03:20:54;;;;;;;35.63;21.42;;;;;;;;;;4882092;29;20052;-75
2021/11/12 03:27:15;;;;;;;33.00;20.40;;;;;;;;;;4880957;29;20060;-75
2021/11/12 04:00:41;;;;;;;27.00;16.52;;;;;;;;;;4880462;29;20048;-76
2021/11/12 04:07:00;;;;;;;28.42;16.27;;;;;;;;;;4879513;29;20402;-76
2021/11/12 05:50:11;;;;;;;32.85;18.30;;;;;;;;;;4879612;29;20044;-75
2021/11/12 05:56:40;;;;;;;32.08;18.48;;;;;;;;;;4878483;29;20054;-75
2021/11/12 05:59:45;;;;;;;36.42;20.02;;;;;;;;;;4877556;29;20268;-76
2021/11/12 06:02:50;;;;;;;30.95;18.13;;;;;;;;;;4877285;29;20048;-74
2021/11/12 06:05:54;;;;;;;33.78;18.80;;;;;;;;;;4867479;29;20048;-77
2021/11/12 06:09:00;;;;;;;31.70;18.05;;;;;;;;;;4878935;29;20045;-76
2021/11/12 06:12:08;;;;;;;30.85;17.73;;;;;;;;;;4878549;29;20052;-75
2021/11/12 06:15:12;;;;;;;35.45;17.38;;;;;;;;;;4877928;29;20048;-75
2021/11/12 06:18:17;;;;;;;40.38;18.65;;;;;;;;;;4883486;29;20056;-77
2021/11/12 06:21:22;;;;;;;37.40;20.20;;;;;;;;;;4883463;29;20052;-76
2021/11/12 06:24:26;;;;;;;30.05;17.65;;;;;;;;;;4882251;29;20052;-75
2021/11/12 06:27:31;;;;;;;30.13;17.77;;;;;;;;;;4882181;29;20048;-76
2021/11/12 06:30:35;;;;;;;27.77;17.92;;;;;;;;;;4882457;29;20409;-75
2021/11/12 06:33:40;;;;;;;32.53;19.63;;;;;;;;;;4882251;29;20052;-75
2021/11/12 06:36:44;;;;;;;34.42;19.67;;;;;;;;;;4881745;29;20521;-70
2021/11/12 06:39:48;;;;;;;33.25;17.23;;;;;;;;;;4881429;29;20048;-69
2021/11/12 06:43:41;;;;;;;32.03;18.30;;;;;;;;;;4881256;29;20052;-70
2021/11/12 06:49:53;;;;;;;31.23;19.23;;;;;;;;;;4880868;29;20085;-67
2021/11/12 06:52:57;;;;;;;29.17;17.88;;;;;;;;;;4880366;29;20405;-66
2021/11/12 06:56:02;;;;;;;29.23;18.30;;;;;;;;;;4880567;29;20493;-66
2021/11/12 06:59:06;;;;;;;30.02;18.00;;;;;;;;;;4880593;29;20056;-67
2021/11/12 07:02:12;;;;;;;30.15;16.85;;;;;;;;;;4880813;29;20047;-66
2021/11/12 07:05:17;;;;;;;26.75;16.85;;;;;;;;;;4880713;29;20052;-71
2021/11/12 07:08:21;;;;;;;34.88;18.05;;;;;;;;;;4880654;29;20405;-66
2021/11/12 07:11:27;;;;;;;573.85;62.00;;;;;;;;;;4880659;29;20082;-71
2021/11/12 07:14:31;;;;;;;35.10;18.58;;;;;;;;;;4890655;29;20048;-70
2021/11/12 07:17:38;;;;;;;33.65;17.38;;;;;;;;;;4879944;29;20048;-67
2021/11/12 07:20:42;;;;;;;27.75;17.00;;;;;;;;;;4878591;29;20053;-69
2021/11/12 07:23:46;;;;;;;28.45;17.23;;;;;;;;;;4879133;29;20064;-70
2021/11/12 07:26:50;;;;;;;31.15;18.20;;;;;;;;;;4879646;29;20529;-73
2021/11/12 07:29:55;;;;;;;27.25;17.50;;;;;;;;;;4879313;29;20048;-74
2021/11/12 07:32:59;;;;;;;32.25;18.05;;;;;;;;;;4880296;29;20048;-72
2021/11/12 07:36:40;;;;;;;26.42;17.35;;;;;;;;;;4880813;29;20068;-72
2021/11/12 07:43:05;;;;;;;29.88;18.35;;;;;;;;;;4880031;29;20053;-72
2021/11/12 07:46:21;;;;;;;31.77;17.45;;;;;;;;;;4868496;29;20047;-67
2021/11/12 07:49:25;;;;;;;37.75;18.98;;;;;;;;;;4879866;29;20422;-69
2021/11/12 07:52:35;;;;;;;30.95;18.73;;;;;;;;;;4879271;29;20040;-69
2021/11/12 07:55:39;;;;;;;38.63;22.42;;;;;;;;;;4879386;29;20063;-69
2021/11/12 07:58:45;;;;;;;34.08;19.48;;;;;;;;;;4879798;29;20064;-69
2021/11/12 08:01:49;;;;;;;40.50;19.25;;;;;;;;;;4879399;29;20060;-68
2021/11/12 08:05:10;;;;;;;36.22;21.02;;;;;;;;;;4879569;29;20056;-69
2021/11/12 08:08:18;;;;;;;32.30;19.70;;;;;;;;;;4879468;29;20048;-69
2021/11/12 08:11:39;;;;;;;27.38;18.77;;;;;;;;;;4879535;29;20398;-68
2021/11/12 08:18:25;;;;;;;27.90;18.42;;;;;;;;;;4879344;29;20063;-69
2021/11/12 08:21:49;;;;;;;34.90;18.45;;;;;;;;;;4879457;29;20043;-67
2021/11/12 08:28:28;;;;;;;29.70;16.88;;;;;;;;;;4879055;29;20048;-68
2021/11/12 08:42:03;;;;;;;27.13;15.13;;;;;;;;;;4878890;29;20052;-69
2021/11/12 08:47:41;;;;;;;19.05;11.85;;;;;;;;;;4878781;29;20048;-68
2021/11/12 08:50:45;;;;;;;25.85;13.85;;;;;;;;;;4878596;29;20453;-67
2021/11/12 08:53:51;;;;;;;31.13;15.43;;;;;;;;;;4877304;29;20060;-68
2021/11/12 08:56:55;;;;;;;31.42;14.70;;;;;;;;;;4876956;29;20052;-66
2021/11/12 09:00:00;;;;;;;24.35;14.82;;;;;;;;;;4877935;29;20064;-69
2021/11/12 09:03:04;;;;;;;28.00;15.10;;;;;;;;;;4877970;29;20072;-69
2021/11/12 09:06:09;;;;;;;20.83;13.07;;;;;;;;;;4877843;29;20060;-67
2021/11/12 09:09:13;;;;;;;25.98;15.68;;;;;;;;;;4876884;29;20067;-70
2021/11/12 09:12:21;;;;;;;19.85;13.88;;;;;;;;;;4877496;29;20044;-68
2021/11/12 09:15:30;;;;;;;32.45;17.48;;;;;;;;;;4877831;29;20052;-68
2021/11/12 09:18:35;;;;;;;21.35;15.10;;;;;;;;;;4877844;29;20068;-67
2021/11/12 09:21:40;;;;;;;28.73;18.25;;;;;;;;;;4877739;29;20060;-67
2021/11/12 09:24:48;;;;;;;24.48;15.15;;;;;;;;;;4877603;29;20052;-68
2021/11/12 09:27:52;;;;;;;27.60;14.30;;;;;;;;;;4877057;29;20056;-67
2021/11/12 09:30:57;;;;;;;28.88;14.50;;;;;;;;;;4877387;29;20068;-68
2021/11/12 09:34:03;;;;;;;24.33;15.40;;;;;;;;;;4877980;29;20056;-68
2021/11/12 09:37:08;;;;;;;27.83;16.20;;;;;;;;;;4877857;29;20048;-66
2021/11/12 09:40:14;;;;;;;26.08;15.93;;;;;;;;;;4877030;29;20064;-67
2021/11/12 09:43:18;;;;;;;29.48;17.10;;;;;;;;;;4878061;29;20048;-69
2021/11/12 09:46:23;;;;;;;35.63;17.70;;;;;;;;;;4878316;29;20076;-68
2021/11/12 09:49:27;;;;;;;25.17;14.15;;;;;;;;;;4877831;29;20052;-68
2021/11/12 09:52:32;;;;;;;24.30;14.90;;;;;;;;;;4877820;29;20048;-69
2021/11/12 09:55:36;;;;;;;24.60;13.85;;;;;;;;;;4888438;29;20409;-74
2021/11/12 09:58:46;;;;;;;24.02;13.05;;;;;;;;;;4878470;29;20069;-68
2021/11/12 10:01:50;;;;;;;19.17;11.65;;;;;;;;;;4878246;29;20044;-72
2021/11/12 10:04:54;;;;;;;24.50;12.63;;;;;;;;;;4878400;29;20056;-72
2021/11/12 10:07:59;;;;;;;25.67;13.18;;;;;;;;;;4877778;29;20040;-70
2021/11/12 10:11:05;;;;;;;22.02;12.27;;;;;;;;;;4877575;29;20052;-67
2021/11/12 10:14:12;;;;;;;26.08;12.93;;;;;;;;;;4877454;29;20394;-67
2021/11/12 10:17:18;;;;;;;42.95;13.07;;;;;;;;;;4877908;29;20118;-69
2021/11/12 10:20:23;;;;;;;26.75;13.02;;;;;;;;;;4877022;29;20084;-68
2021/11/12 10:23:30;;;;;;;25.65;13.30;;;;;;;;;;4877240;29;20052;-67
2021/11/12 10:26:35;;;;;;;22.60;13.27;;;;;;;;;;4876669;29;20052;-67
2021/11/12 10:29:45;;;;;;;21.92;13.50;;;;;;;;;;4877564;29;20044;-66
2021/11/12 10:32:53;;;;;;;26.88;13.57;;;;;;;;;;4876584;29;20064;-69
2021/11/12 10:35:57;;;;;;;31.08;16.33;;;;;;;;;;4877125;29;20052;-66
2021/11/12 10:39:02;;;;;;;30.67;17.48;;;;;;;;;;4876695;29;20617;-70
2021/11/12 10:42:08;;;;;;;32.83;17.60;;;;;;;;;;4877067;29;20037;-65
2021/11/12 10:45:34;;;;;;;27.55;17.15;;;;;;;;;;4877483;29;20488;-69
2021/11/12 10:48:39;;;;;;;31.98;18.58;;;;;;;;;;4876703;29;20068;-69
2021/11/12 10:51:51;;;;;;;38.95;20.02;;;;;;;;;;4877070;29;20060;-67
2021/11/12 10:55:01;;;;;;;33.85;19.77;;;;;;;;;;4876892;29;20048;-67
2021/11/12 10:58:08;;;;;;;37.67;19.63;;;;;;;;;;4877134;29;20056;-67
2021/11/12 11:01:13;;;;;;;31.50;18.13;;;;;;;;;;4876969;29;20059;-64
2021/11/12 11:04:19;;;;;;;33.35;18.20;;;;;;;;;;4880253;29;20064;-69
2021/11/12 11:07:24;;;;;;;34.97;18.58;;;;;;;;;;4880248;29;20048;-67
2021/11/12 11:10:35;;;;;;;30.25;19.30;;;;;;;;;;4880022;29;20056;-69
2021/11/12 11:13:48;;;;;;;33.53;18.55;;;;;;;;;;4879862;29;20044;-68
2021/11/12 11:16:53;;;;;;;36.45;19.38;;;;;;;;;;4879810;29;20428;-65
2021/11/12 11:19:57;;;;;;;33.80;19.70;;;;;;;;;;4879919;29;20063;-67
2021/11/12 11:23:02;;;;;;;35.05;18.38;;;;;;;;;;4880306;29;20528;-66
2021/11/12 11:26:06;;;;;;;32.97;18.70;;;;;;;;;;4879956;29;20048;-69
2021/11/12 11:29:12;;;;;;;34.50;20.70;;;;;;;;;;4879765;29;20533;-67
2021/11/12 11:32:16;;;;;;;33.95;19.40;;;;;;;;;;4861391;29;20057;-67
2021/11/12 11:35:21;;;;;;;37.97;21.05;;;;;;;;;;4861108;29;20052;-67
2021/11/12 11:38:27;;;;;;;33.78;19.75;;;;;;;;;;4861192;29;20057;-71
2021/11/12 11:41:33;;;;;;;33.90;19.35;;;;;;;;;;4861315;29;20061;-69
2021/11/12 11:44:39;;;;;;;35.05;19.67;;;;;;;;;;4861733;29;20057;-79
2021/11/12 11:47:48;;;;;;;34.15;18.40;;;;;;;;;;4870775;29;20052;-70
2021/11/12 11:50:54;;;;;;;40.35;20.10;;;;;;;;;;4860794;29;20048;-70
2021/11/12 11:54:12;;;;;;;37.85;18.67;;;;;;;;;;4860915;29;20044;-66
2021/11/12 11:57:19;;;;;;;40.17;21.33;;;;;;;;;;4861221;29;20060;-68
2021/11/12 12:00:27;;;;;;;33.47;19.17;;;;;;;;;;4861294;29;20056;-69
2021/11/12 12:03:34;;;;;;;33.55;17.77;;;;;;;;;;4859726;29;20049;-66
2021/11/12 12:06:43;;;;;;;44.47;21.25;;;;;;;;;;4860063;29;20107;-67
2021/11/12 12:09:59;;;;;;;38.00;21.27;;;;;;;;;;4860457;29;20045;-66
2021/11/12 12:13:04;;;;;;;39.03;22.70;;;;;;;;;;4860570;29;20052;-67
2021/11/12 12:16:09;;;;;;;39.03;23.63;;;;;;;;;;4860258;29;20048;-69
2021/11/12 12:19:40;;;;;;;45.83;24.80;;;;;;;;;;4860247;29;20064;-66
2021/11/12 13:22:32;;;;;;;33.83;22.70;;;;;;;;;;4859843;29;20060;-68
2021/11/12 13:25:13;;;;;;;38.60;22.20;;;;;;;;;;4858728;29;20044;-68
2021/11/12 13:28:22;;;;;;;35.47;22.23;;;;;;;;;;4859266;29;20049;-64
2021/11/12 13:31:27;;;;;;;35.95;21.70;;;;;;;;;;4873215;29;20083;-70
2021/11/12 13:34:42;;;;;;;36.05;22.98;;;;;;;;;;4878145;29;20056;-67
2021/11/12 13:37:52;;;;;;;40.85;24.67;;;;;;;;;;4877902;29;20052;-68
2021/11/12 13:41:01;;;;;;;31.23;20.83;;;;;;;;;;4877824;29;20052;-67
2021/11/12 13:44:09;;;;;;;31.85;21.52;;;;;;;;;;4878135;29;20394;-68
2021/11/12 13:47:16;;;;;;;35.72;21.00;;;;;;;;;;4877831;29;20059;-66
2021/11/12 13:50:20;;;;;;;37.65;22.33;;;;;;;;;;4877128;29;20047;-67
2021/11/12 13:53:26;;;;;;;40.38;23.77;;;;;;;;;;4877958;29;20048;-68
2021/11/12 13:56:35;;;;;;;39.10;24.85;;;;;;;;;;4877598;29;20040;-67
2021/11/12 13:59:49;;;;;;;35.38;23.92;;;;;;;;;;4876786;29;20059;-67
2021/11/12 14:02:55;;;;;;;37.92;23.77;;;;;;;;;;4877586;29;20056;-67
2021/11/12 14:06:01;;;;;;;38.72;23.23;;;;;;;;;;4877479;29;20052;-67
2021/11/12 14:09:05;;;;;;;36.72;21.98;;;;;;;;;;4876477;29;20096;-66
2021/11/12 14:12:12;;;;;;;32.03;19.48;;;;;;;;;;4876681;29;20048;-66
2021/11/12 14:15:22;;;;;;;38.80;18.67;;;;;;;;;;4876656;29;20052;-67
2021/11/12 14:18:44;;;;;;;27.45;17.50;;;;;;;;;;4877467;29;20060;-67
2021/11/12 14:22:11;;;;;;;27.73;16.92;;;;;;;;;;4865825;29;20512;-67
2021/11/12 14:28:33;;;;;;;23.98;15.27;;;;;;;;;;4877159;29;20052;-68
2021/11/12 14:41:57;;;;;;;27.80;16.73;;;;;;;;;;4880745;29;20061;-67
2021/11/12 14:45:10;;;;;;;31.17;17.92;;;;;;;;;;4881177;29;20068;-67
2021/11/12 14:51:33;;;;;;;31.23;18.75;;;;;;;;;;4880620;29;20046;-67
2021/11/12 14:54:51;;;;;;;34.95;21.33;;;;;;;;;;4880331;29;20048;-67
2021/11/12 14:57:56;;;;;;;35.15;22.15;;;;;;;;;;4880935;29;20077;-67
2021/11/12 15:01:09;;;;;;;36.55;22.15;;;;;;;;;;4880496;29;20530;-66
2021/11/12 15:04:13;;;;;;;33.35;20.70;;;;;;;;;;4880129;29;20052;-67
2021/11/12 15:07:22;;;;;;;34.38;21.85;;;;;;;;;;4880565;29;20047;-70
2021/11/12 15:10:29;;;;;;;36.65;21.50;;;;;;;;;;4880418;29;20036;-65
2021/11/12 15:13:36;;;;;;;44.40;26.33;;;;;;;;;;4880181;29;20060;-64
2021/11/12 15:16:44;;;;;;;30.92;20.23;;;;;;;;;;4880493;29;20588;-66
2021/11/12 15:19:49;;;;;;;32.10;19.85;;;;;;;;;;4879989;29;20611;-64
2021/11/12 15:32:40;;;;;;;31.30;18.23;;;;;;;;;;4880248;29;20509;-68
2021/11/12 15:35:45;;;;;;;31.45;17.88;;;;;;;;;;4879521;29;20055;-70
2021/11/12 15:48:23;;;;;;;27.55;18.35;;;;;;;;;;4879740;29;20414;-70
2021/11/12 15:51:47;;;;;;;36.60;19.00;;;;;;;;;;4879422;29;20338;-71
2021/11/12 15:55:01;;;;;;;36.67;21.00;;;;;;;;;;4879143;29;20064;-70
2021/11/12 16:08:06;;;;;;;36.80;22.45;;;;;;;;;;4878927;29;20065;-69
2021/11/12 16:20:41;;;;;;;54.47;32.55;;;;;;;;;;4878875;29;20060;-69
2021/11/12 16:26:58;;;;;;;48.65;33.78;;;;;;;;;;4877498;29;20393;-67
2021/11/12 16:30:06;;;;;;;48.78;32.88;;;;;;;;;;4878456;29;20044;-68
2021/11/12 16:33:10;;;;;;;44.50;31.13;;;;;;;;;;4879122;29;20052;-68
2021/11/12 16:36:14;;;;;;;47.72;31.67;;;;;;;;;;4878435;29;20048;-69
2021/11/12 16:39:26;;;;;;;49.30;32.80;;;;;;;;;;4877575;29;20060;-66
2021/11/12 16:49:05;;;;;;;49.95;30.88;;;;;;;;;;4878482;29;20067;-66
2021/11/12 17:02:28;;;;;;;47.38;31.40;;;;;;;;;;4877923;29;20064;-66
2021/11/12 17:08:59;;;;;;;54.95;34.97;;;;;;;;;;4878114;29;20264;-67
2021/11/12 17:15:19;;;;;;;54.00;35.30;;;;;;;;;;4878082;29;20171;-68
2021/11/12 17:48:39;;;;;;;54.35;35.17;;;;;;;;;;4877428;29;20382;-67
2021/11/12 21:45:20;;;;;;;58.92;38.97;;;;;;;;;;4879806;29;20057;-80
2021/11/12 21:48:25;;;;;;;59.85;38.88;;;;;;;;;;4880372;29;20107;-80
2021/11/12 21:51:33;;;;;;;58.05;37.83;;;;;;;;;;4880101;29;20052;-80
2021/11/12 21:54:37;;;;;;;63.53;41.28;;;;;;;;;;4879964;29;20421;-80
2021/11/12 21:57:42;;;;;;;63.13;42.35;;;;;;;;;;4879453;29;20071;-79
2021/11/12 22:00:48;;;;;;;60.70;41.35;;;;;;;;;;4880140;29;20064;-79
2021/11/12 22:03:52;;;;;;;69.80;41.95;;;;;;;;;;4878765;29;20048;-79
2021/11/12 22:06:57;;;;;;;60.67;41.28;;;;;;;;;;4879463;29;20060;-79
2021/11/12 22:10:01;;;;;;;65.30;42.95;;;;;;;;;;4879614;29;20048;-79
2021/11/12 22:13:06;;;;;;;65.95;43.35;;;;;;;;;;4879212;29;20052;-79
2021/11/12 22:16:11;;;;;;;70.53;42.65;;;;;;;;;;4879802;29;20052;-79
2021/11/12 22:19:16;;;;;;;65.85;44.33;;;;;;;;;;4879130;29;20055;-78
2021/11/12 22:22:20;;;;;;;70.70;45.72;;;;;;;;;;4878566;29;20056;-78
2021/11/12 22:25:25;;;;;;;70.47;46.65;;;;;;;;;;4879738;29;20044;-78
2021/11/12 22:28:29;;;;;;;69.25;45.83;;;;;;;;;;4878618;29;20051;-79
2021/11/12 22:31:33;;;;;;;80.88;50.92;;;;;;;;;;4879221;29;20064;-79
2021/11/12 22:34:38;;;;;;;75.72;49.85;;;;;;;;;;4879293;29;20052;-79
2021/11/12 22:37:42;;;;;;;70.60;46.10;;;;;;;;;;4878781;29;20048;-79
2021/11/12 22:40:46;;;;;;;72.63;44.45;;;;;;;;;;4879303;29;20060;-80
2021/11/12 22:44:00;;;;;;;75.43;44.28;;;;;;;;;;4879151;29;20068;-77
2021/11/12 22:47:07;;;;;;;62.70;39.28;;;;;;;;;;4878904;29;20056;-78
2021/11/12 22:50:12;;;;;;;63.25;40.83;;;;;;;;;;4879204;29;20209;-77
2021/11/12 22:53:18;;;;;;;65.70;42.42;;;;;;;;;;4879546;29;20055;-78
2021/11/12 22:56:23;;;;;;;60.65;40.38;;;;;;;;;;4879519;29;20500;-78
2021/11/12 22:59:30;;;;;;;59.28;39.95;;;;;;;;;;4881360;29;20048;-79
2021/11/12 23:02:34;;;;;;;63.03;40.63;;;;;;;;;;4882247;29;20052;-78
2021/11/12 23:05:39;;;;;;;58.83;41.10;;;;;;;;;;4883210;29;20057;-78
2021/11/12 23:08:44;;;;;;;62.80;40.47;;;;;;;;;;4882605;29;20044;-78
2021/11/12 23:11:53;;;;;;;65.55;42.35;;;;;;;;;;4883048;29;20055;-79
2021/11/12 23:14:57;;;;;;;65.50;42.40;;;;;;;;;;4882693;29;20385;-79
2021/11/12 23:18:02;;;;;;;58.42;40.42;;;;;;;;;;4881963;29;20048;-78
2021/11/12 23:21:07;;;;;;;64.80;41.75;;;;;;;;;;4881739;29;20064;-79
2021/11/12 23:24:12;;;;;;;61.20;41.70;;;;;;;;;;4882675;29;20048;-79
2021/11/12 23:27:16;;;;;;;66.32;42.42;;;;;;;;;;4882479;29;20048;-78
2021/11/12 23:30:20;;;;;;;60.25;42.70;;;;;;;;;;4882458;29;20234;-78
2021/11/12 23:33:25;;;;;;;65.38;43.83;;;;;;;;;;4882854;29;20044;-78
2021/11/12 23:36:29;;;;;;;61.20;42.35;;;;;;;;;;4882571;29;20044;-78
2021/11/12 23:39:33;;;;;;;65.32;42.03;;;;;;;;;;4881907;29;20068;-78
2021/11/12 23:42:38;;;;;;;67.13;42.17;;;;;;;;;;4882613;29;20056;-78
2021/11/12 23:45:43;;;;;;;57.35;39.88;;;;;;;;;;4882504;29;20044;-78
2021/11/12 23:48:50;;;;;;;61.42;41.20;;;;;;;;;;4882044;29;20044;-78
2021/11/12 23:51:55;;;;;;;61.28;39.92;;;;;;;;;;4881488;29;20068;-78
2021/11/12 23:55:02;;;;;;;60.25;39.70;;;;;;;;;;4881920;29;20048;-79
2021/11/12 23:58:07;;;;;;;60.33;39.72;;;;;;;;;;4881490;29;20052;-79
